sensor_id;sensor_type;location;lat;lon;timestamp;P1;durP1;ratioP1;P2;durP2;ratioP2
11827;SDS011;5971;49.646;8.568;2024-01-15T00:00:15;23.23;;;8.07;;
11827;SDS011;5971;49.646;8.568;2024-01-15T00:03:17;22.30;;;7.07;;
11827;SDS011;5971;49.646;8.568;2024-01-15T00:06:19;15.18;;;6.28;;
11827;SDS011;5971;49.646;8.568;2024-01-15T00:09:20;21.20;;;8.55;;
11827;SDS011;5971;49.646;8.568;2024-01-15T00:12:22;18.30;;;7.32;;
11827;SDS011;5971;49.646;8.568;2024-01-15T00:15:23;20.02;;;7.28;;
11827;SDS011;5971;49.646;8.568;2024-01-15T00:18:25;15.55;;;6.30;;
11827;SDS011;5971;49.646;8.568;2024-01-15T00:21:26;21.35;;;7.75;;
11827;SDS011;5971;49.646;8.568;2024-01-15T00:24:29;18.50;;;6.97;;
11827;SDS011;5971;49.646;8.568;2024-01-15T00:27:30;15.82;;;6.38;;
11827;SDS011;5971;49.646;8.568;2024-01-15T00:30:31;19.80;;;6.82;;
11827;SDS011;5971;49.646;8.568;2024-01-15T00:33:33;22.08;;;8.27;;
11827;SDS011;5971;49.646;8.568;2024-01-15T00:36:34;20.38;;;7.97;;
11827;SDS011;5971;49.646;8.568;2024-01-15T00:39:36;21.77;;;8.20;;
11827;SDS011;5971;49.646;8.568;2024-01-15T00:42:37;21.55;;;7.22;;
11827;SDS011;5971;49.646;8.568;2024-01-15T00:45:39;18.13;;;7.55;;
11827;SDS011;5971;49.646;8.568;2024-01-15T00:48:40;13.32;;;4.88;;
11827;SDS011;5971;49.646;8.568;2024-01-15T00:51:42;28.52;;;8.73;;
11827;SDS011;5971;49.646;8.568;2024-01-15T00:54:43;17.27;;;5.05;;
11827;SDS011;5971;49.646;8.568;2024-01-15T00:57:45;22.85;;;7.60;;
11827;SDS011;5971;49.646;8.568;2024-01-15T01:00:46;20.80;;;7.45;;
11827;SDS011;5971;49.646;8.568;2024-01-15T01:03:48;23.60;;;9.68;;
11827;SDS011;5971;49.646;8.568;2024-01-15T01:06:49;27.15;;;9.35;;
11827;SDS011;5971;49.646;8.568;2024-01-15T01:09:51;19.50;;;8.00;;
11827;SDS011;5971;49.646;8.568;2024-01-15T01:12:52;24.02;;;7.57;;
11827;SDS011;5971;49.646;8.568;2024-01-15T01:15:54;20.00;;;7.43;;
11827;SDS011;5971;49.646;8.568;2024-01-15T01:18:55;19.50;;;8.10;;
11827;SDS011;5971;49.646;8.568;2024-01-15T01:21:57;17.58;;;7.78;;
11827;SDS011;5971;49.646;8.568;2024-01-15T01:24:58;21.52;;;7.82;;
11827;SDS011;5971;49.646;8.568;2024-01-15T01:28:00;16.70;;;6.43;;
11827;SDS011;5971;49.646;8.568;2024-01-15T01:31:01;23.38;;;7.30;;
11827;SDS011;5971;49.646;8.568;2024-01-15T01:34:02;16.90;;;7.47;;
11827;SDS011;5971;49.646;8.568;2024-01-15T01:37:04;22.45;;;7.60;;
11827;SDS011;5971;49.646;8.568;2024-01-15T01:40:05;12.00;;;5.93;;
11827;SDS011;5971;49.646;8.568;2024-01-15T01:43:08;20.60;;;7.53;;
11827;SDS011;5971;49.646;8.568;2024-01-15T01:46:10;15.38;;;6.05;;
11827;SDS011;5971;49.646;8.568;2024-01-15T01:49:12;16.73;;;6.82;;
11827;SDS011;5971;49.646;8.568;2024-01-15T01:52:14;19.30;;;7.60;;
11827;SDS011;5971;49.646;8.568;2024-01-15T01:55:16;20.95;;;6.22;;
11827;SDS011;5971;49.646;8.568;2024-01-15T01:58:17;19.02;;;7.07;;
11827;SDS011;5971;49.646;8.568;2024-01-15T02:01:19;19.55;;;7.22;;
11827;SDS011;5971;49.646;8.568;2024-01-15T02:04:24;18.10;;;6.50;;
11827;SDS011;5971;49.646;8.568;2024-01-15T02:07:25;18.17;;;6.60;;
11827;SDS011;5971;49.646;8.568;2024-01-15T02:10:27;18.10;;;6.85;;
11827;SDS011;5971;49.646;8.568;2024-01-15T02:13:28;21.40;;;7.03;;
11827;SDS011;5971;49.646;8.568;2024-01-15T02:16:29;14.88;;;6.60;;
11827;SDS011;5971;49.646;8.568;2024-01-15T02:19:31;18.67;;;6.53;;
11827;SDS011;5971;49.646;8.568;2024-01-15T02:22:32;20.50;;;7.25;;
11827;SDS011;5971;49.646;8.568;2024-01-15T02:25:34;15.55;;;5.75;;
11827;SDS011;5971;49.646;8.568;2024-01-15T02:28:35;20.73;;;7.88;;
11827;SDS011;5971;49.646;8.568;2024-01-15T02:31:36;16.70;;;6.18;;
11827;SDS011;5971;49.646;8.568;2024-01-15T02:34:38;16.15;;;5.85;;
11827;SDS011;5971;49.646;8.568;2024-01-15T02:37:40;11.23;;;4.00;;
11827;SDS011;5971;49.646;8.568;2024-01-15T02:40:41;15.98;;;4.75;;
11827;SDS011;5971;49.646;8.568;2024-01-15T02:43:42;18.08;;;5.22;;
11827;SDS011;5971;49.646;8.568;2024-01-15T02:46:44;16.00;;;5.72;;
11827;SDS011;5971;49.646;8.568;2024-01-15T02:49:45;16.88;;;6.25;;
11827;SDS011;5971;49.646;8.568;2024-01-15T02:52:47;16.52;;;6.07;;
11827;SDS011;5971;49.646;8.568;2024-01-15T02:55:48;14.40;;;4.72;;
11827;SDS011;5971;49.646;8.568;2024-01-15T02:58:49;14.60;;;5.13;;
11827;SDS011;5971;49.646;8.568;2024-01-15T03:01:51;13.52;;;4.97;;
11827;SDS011;5971;49.646;8.568;2024-01-15T03:04:52;10.80;;;5.32;;
11827;SDS011;5971;49.646;8.568;2024-01-15T03:07:53;17.67;;;6.05;;
11827;SDS011;5971;49.646;8.568;2024-01-15T03:10:55;19.13;;;7.07;;
11827;SDS011;5971;49.646;8.568;2024-01-15T03:13:56;14.25;;;5.80;;
11827;SDS011;5971;49.646;8.568;2024-01-15T03:16:57;19.38;;;7.68;;
11827;SDS011;5971;49.646;8.568;2024-01-15T03:19:59;14.65;;;5.07;;
11827;SDS011;5971;49.646;8.568;2024-01-15T03:23:01;15.13;;;5.63;;
11827;SDS011;5971;49.646;8.568;2024-01-15T03:26:02;15.70;;;6.10;;
11827;SDS011;5971;49.646;8.568;2024-01-15T03:29:03;17.60;;;6.60;;
11827;SDS011;5971;49.646;8.568;2024-01-15T03:32:05;11.40;;;4.95;;
11827;SDS011;5971;49.646;8.568;2024-01-15T03:35:06;16.10;;;6.07;;
11827;SDS011;5971;49.646;8.568;2024-01-15T03:38:08;15.57;;;6.07;;
11827;SDS011;5971;49.646;8.568;2024-01-15T03:41:09;15.82;;;5.93;;
11827;SDS011;5971;49.646;8.568;2024-01-15T03:44:10;17.13;;;5.75;;
11827;SDS011;5971;49.646;8.568;2024-01-15T03:47:12;15.45;;;7.10;;
11827;SDS011;5971;49.646;8.568;2024-01-15T03:50:13;18.13;;;6.97;;
11827;SDS011;5971;49.646;8.568;2024-01-15T03:53:14;11.80;;;5.05;;
11827;SDS011;5971;49.646;8.568;2024-01-15T03:56:16;14.98;;;5.70;;
11827;SDS011;5971;49.646;8.568;2024-01-15T03:59:17;20.27;;;6.82;;
11827;SDS011;5971;49.646;8.568;2024-01-15T04:02:18;14.13;;;5.70;;
11827;SDS011;5971;49.646;8.568;2024-01-15T04:05:20;14.00;;;5.18;;
11827;SDS011;5971;49.646;8.568;2024-01-15T04:08:21;18.55;;;6.90;;
11827;SDS011;5971;49.646;8.568;2024-01-15T04:11:22;18.02;;;6.45;;
11827;SDS011;5971;49.646;8.568;2024-01-15T04:14:24;21.42;;;6.93;;
11827;SDS011;5971;49.646;8.568;2024-01-15T04:17:26;12.88;;;4.40;;
11827;SDS011;5971;49.646;8.568;2024-01-15T04:20:28;15.95;;;6.47;;
11827;SDS011;5971;49.646;8.568;2024-01-15T04:23:29;11.73;;;4.60;;
11827;SDS011;5971;49.646;8.568;2024-01-15T04:26:30;14.63;;;5.35;;
11827;SDS011;5971;49.646;8.568;2024-01-15T04:29:32;15.05;;;5.10;;
11827;SDS011;5971;49.646;8.568;2024-01-15T04:32:33;12.20;;;5.28;;
11827;SDS011;5971;49.646;8.568;2024-01-15T04:35:34;17.77;;;6.45;;
11827;SDS011;5971;49.646;8.568;2024-01-15T04:38:39;20.73;;;6.78;;
11827;SDS011;5971;49.646;8.568;2024-01-15T04:41:40;11.00;;;4.70;;
11827;SDS011;5971;49.646;8.568;2024-01-15T04:44:41;11.95;;;5.50;;
11827;SDS011;5971;49.646;8.568;2024-01-15T04:47:44;16.90;;;6.25;;
11827;SDS011;5971;49.646;8.568;2024-01-15T04:50:45;19.27;;;7.32;;
11827;SDS011;5971;49.646;8.568;2024-01-15T04:53:47;16.08;;;6.03;;
11827;SDS011;5971;49.646;8.568;2024-01-15T04:56:51;14.50;;;4.82;;
11827;SDS011;5971;49.646;8.568;2024-01-15T04:59:53;15.48;;;6.03;;
11827;SDS011;5971;49.646;8.568;2024-01-15T05:02:54;19.48;;;6.10;;
11827;SDS011;5971;49.646;8.568;2024-01-15T05:05:55;21.73;;;6.90;;
11827;SDS011;5971;49.646;8.568;2024-01-15T05:08:57;16.67;;;6.50;;
11827;SDS011;5971;49.646;8.568;2024-01-15T05:12:01;15.48;;;5.90;;
11827;SDS011;5971;49.646;8.568;2024-01-15T05:15:02;17.65;;;6.43;;
11827;SDS011;5971;49.646;8.568;2024-01-15T05:18:04;16.95;;;5.95;;
11827;SDS011;5971;49.646;8.568;2024-01-15T05:21:06;17.20;;;5.50;;
11827;SDS011;5971;49.646;8.568;2024-01-15T05:24:08;16.73;;;5.63;;
11827;SDS011;5971;49.646;8.568;2024-01-15T05:27:09;16.17;;;5.47;;
11827;SDS011;5971;49.646;8.568;2024-01-15T05:30:10;12.55;;;4.55;;
11827;SDS011;5971;49.646;8.568;2024-01-15T05:33:12;19.85;;;6.85;;
11827;SDS011;5971;49.646;8.568;2024-01-15T05:36:14;26.75;;;11.35;;
11827;SDS011;5971;49.646;8.568;2024-01-15T05:39:15;19.38;;;7.25;;
11827;SDS011;5971;49.646;8.568;2024-01-15T05:42:16;15.32;;;6.57;;
11827;SDS011;5971;49.646;8.568;2024-01-15T05:45:18;16.13;;;7.65;;
11827;SDS011;5971;49.646;8.568;2024-01-15T05:48:19;17.75;;;8.20;;
11827;SDS011;5971;49.646;8.568;2024-01-15T05:51:21;24.42;;;9.07;;
11827;SDS011;5971;49.646;8.568;2024-01-15T05:54:22;21.30;;;7.07;;
11827;SDS011;5971;49.646;8.568;2024-01-15T05:57:23;21.92;;;7.43;;
11827;SDS011;5971;49.646;8.568;2024-01-15T06:00:25;17.77;;;6.97;;
11827;SDS011;5971;49.646;8.568;2024-01-15T06:03:26;16.02;;;7.13;;
11827;SDS011;5971;49.646;8.568;2024-01-15T06:06:28;16.13;;;7.05;;
11827;SDS011;5971;49.646;8.568;2024-01-15T06:09:29;17.17;;;8.13;;
11827;SDS011;5971;49.646;8.568;2024-01-15T06:12:31;20.35;;;8.07;;
11827;SDS011;5971;49.646;8.568;2024-01-15T06:15:33;16.00;;;6.55;;
11827;SDS011;5971;49.646;8.568;2024-01-15T06:18:34;13.57;;;6.35;;
11827;SDS011;5971;49.646;8.568;2024-01-15T06:21:36;15.50;;;6.20;;
11827;SDS011;5971;49.646;8.568;2024-01-15T06:24:37;20.70;;;6.40;;
11827;SDS011;5971;49.646;8.568;2024-01-15T06:27:39;20.23;;;7.18;;
11827;SDS011;5971;49.646;8.568;2024-01-15T06:30:40;17.38;;;6.65;;
11827;SDS011;5971;49.646;8.568;2024-01-15T06:33:41;16.95;;;6.40;;
11827;SDS011;5971;49.646;8.568;2024-01-15T06:36:43;18.63;;;6.20;;
11827;SDS011;5971;49.646;8.568;2024-01-15T06:39:44;19.70;;;6.90;;
11827;SDS011;5971;49.646;8.568;2024-01-15T06:42:46;19.90;;;6.65;;
11827;SDS011;5971;49.646;8.568;2024-01-15T06:45:47;17.42;;;6.78;;
11827;SDS011;5971;49.646;8.568;2024-01-15T06:48:49;21.33;;;7.35;;
11827;SDS011;5971;49.646;8.568;2024-01-15T06:51:51;16.27;;;6.43;;
11827;SDS011;5971;49.646;8.568;2024-01-15T06:54:52;17.73;;;7.15;;
11827;SDS011;5971;49.646;8.568;2024-01-15T06:57:53;17.55;;;6.38;;
11827;SDS011;5971;49.646;8.568;2024-01-15T07:00:55;13.18;;;5.97;;
11827;SDS011;5971;49.646;8.568;2024-01-15T07:03:56;16.75;;;6.93;;
11827;SDS011;5971;49.646;8.568;2024-01-15T07:06:58;19.45;;;7.10;;
11827;SDS011;5971;49.646;8.568;2024-01-15T07:09:59;15.52;;;6.07;;
11827;SDS011;5971;49.646;8.568;2024-01-15T07:13:01;20.30;;;7.97;;
11827;SDS011;5971;49.646;8.568;2024-01-15T07:16:02;18.15;;;6.88;;
11827;SDS011;5971;49.646;8.568;2024-01-15T07:19:04;13.40;;;5.05;;
11827;SDS011;5971;49.646;8.568;2024-01-15T07:22:06;27.45;;;10.85;;
11827;SDS011;5971;49.646;8.568;2024-01-15T07:25:07;14.90;;;6.35;;
11827;SDS011;5971;49.646;8.568;2024-01-15T07:28:09;10.13;;;5.00;;
11827;SDS011;5971;49.646;8.568;2024-01-15T07:31:10;14.65;;;5.43;;
11827;SDS011;5971;49.646;8.568;2024-01-15T07:34:11;17.88;;;6.93;;
11827;SDS011;5971;49.646;8.568;2024-01-15T07:37:13;17.30;;;6.35;;
11827;SDS011;5971;49.646;8.568;2024-01-15T07:40:14;21.13;;;9.18;;
11827;SDS011;5971;49.646;8.568;2024-01-15T07:43:17;20.30;;;8.82;;
11827;SDS011;5971;49.646;8.568;2024-01-15T07:46:19;13.68;;;5.25;;
11827;SDS011;5971;49.646;8.568;2024-01-15T07:49:20;17.58;;;7.53;;
11827;SDS011;5971;49.646;8.568;2024-01-15T07:52:21;15.82;;;6.55;;
11827;SDS011;5971;49.646;8.568;2024-01-15T07:55:23;15.70;;;6.68;;
11827;SDS011;5971;49.646;8.568;2024-01-15T07:58:24;20.55;;;6.97;;
11827;SDS011;5971;49.646;8.568;2024-01-15T08:01:26;11.13;;;4.47;;
11827;SDS011;5971;49.646;8.568;2024-01-15T08:04:27;16.77;;;6.68;;
11827;SDS011;5971;49.646;8.568;2024-01-15T08:07:29;14.52;;;6.03;;
11827;SDS011;5971;49.646;8.568;2024-01-15T08:10:31;9.80;;;3.58;;
11827;SDS011;5971;49.646;8.568;2024-01-15T08:13:32;9.75;;;4.45;;
11827;SDS011;5971;49.646;8.568;2024-01-15T08:16:33;16.33;;;7.47;;
11827;SDS011;5971;49.646;8.568;2024-01-15T08:19:35;16.23;;;7.25;;
11827;SDS011;5971;49.646;8.568;2024-01-15T08:22:36;9.52;;;3.58;;
11827;SDS011;5971;49.646;8.568;2024-01-15T08:25:38;17.50;;;6.35;;
11827;SDS011;5971;49.646;8.568;2024-01-15T08:28:39;13.85;;;5.50;;
11827;SDS011;5971;49.646;8.568;2024-01-15T08:31:40;12.55;;;4.55;;
11827;SDS011;5971;49.646;8.568;2024-01-15T08:34:42;11.98;;;4.22;;
11827;SDS011;5971;49.646;8.568;2024-01-15T08:37:49;15.70;;;5.95;;
11827;SDS011;5971;49.646;8.568;2024-01-15T08:40:50;16.15;;;6.15;;
11827;SDS011;5971;49.646;8.568;2024-01-15T08:43:54;16.80;;;6.35;;
11827;SDS011;5971;49.646;8.568;2024-01-15T08:46:55;13.27;;;4.97;;
11827;SDS011;5971;49.646;8.568;2024-01-15T08:49:57;13.57;;;5.43;;
11827;SDS011;5971;49.646;8.568;2024-01-15T08:52:59;9.70;;;4.43;;
11827;SDS011;5971;49.646;8.568;2024-01-15T08:56:01;16.33;;;6.55;;
11827;SDS011;5971;49.646;8.568;2024-01-15T08:59:02;16.27;;;6.28;;
11827;SDS011;5971;49.646;8.568;2024-01-15T09:02:04;17.13;;;6.40;;
11827;SDS011;5971;49.646;8.568;2024-01-15T09:05:06;14.65;;;5.63;;
11827;SDS011;5971;49.646;8.568;2024-01-15T09:08:07;16.23;;;6.07;;
11827;SDS011;5971;49.646;8.568;2024-01-15T09:11:09;11.50;;;4.72;;
11827;SDS011;5971;49.646;8.568;2024-01-15T09:14:10;14.27;;;6.43;;
11827;SDS011;5971;49.646;8.568;2024-01-15T09:17:17;18.52;;;6.97;;
11827;SDS011;5971;49.646;8.568;2024-01-15T09:20:18;11.15;;;4.97;;
11827;SDS011;5971;49.646;8.568;2024-01-15T09:23:20;14.15;;;5.18;;
11827;SDS011;5971;49.646;8.568;2024-01-15T09:26:21;14.52;;;6.35;;
11827;SDS011;5971;49.646;8.568;2024-01-15T09:29:23;15.88;;;6.00;;
11827;SDS011;5971;49.646;8.568;2024-01-15T09:32:25;15.15;;;6.53;;
11827;SDS011;5971;49.646;8.568;2024-01-15T09:35:26;18.75;;;6.72;;
11827;SDS011;5971;49.646;8.568;2024-01-15T09:38:28;15.07;;;5.80;;
11827;SDS011;5971;49.646;8.568;2024-01-15T09:41:29;13.80;;;6.07;;
11827;SDS011;5971;49.646;8.568;2024-01-15T09:44:31;16.85;;;6.80;;
11827;SDS011;5971;49.646;8.568;2024-01-15T09:47:33;18.85;;;6.32;;
11827;SDS011;5971;49.646;8.568;2024-01-15T09:50:34;19.52;;;6.78;;
11827;SDS011;5971;49.646;8.568;2024-01-15T09:53:35;15.80;;;6.55;;
11827;SDS011;5971;49.646;8.568;2024-01-15T09:56:39;20.02;;;7.80;;
11827;SDS011;5971;49.646;8.568;2024-01-15T09:59:40;22.98;;;8.43;;
11827;SDS011;5971;49.646;8.568;2024-01-15T10:02:43;17.30;;;7.63;;
11827;SDS011;5971;49.646;8.568;2024-01-15T10:05:45;20.40;;;8.43;;
11827;SDS011;5971;49.646;8.568;2024-01-15T10:08:50;16.58;;;7.28;;
11827;SDS011;5971;49.646;8.568;2024-01-15T10:11:51;20.55;;;7.78;;
11827;SDS011;5971;49.646;8.568;2024-01-15T10:14:53;18.90;;;7.43;;
11827;SDS011;5971;49.646;8.568;2024-01-15T10:17:54;20.63;;;8.02;;
11827;SDS011;5971;49.646;8.568;2024-01-15T10:20:56;18.88;;;8.10;;
11827;SDS011;5971;49.646;8.568;2024-01-15T10:23:59;18.50;;;7.20;;
11827;SDS011;5971;49.646;8.568;2024-01-15T10:27:07;18.58;;;6.72;;
11827;SDS011;5971;49.646;8.568;2024-01-15T10:33:10;20.33;;;8.13;;
11827;SDS011;5971;49.646;8.568;2024-01-15T10:36:13;11.70;;;5.18;;
11827;SDS011;5971;49.646;8.568;2024-01-15T10:39:14;16.88;;;7.43;;
11827;SDS011;5971;49.646;8.568;2024-01-15T10:42:16;19.55;;;8.70;;
11827;SDS011;5971;49.646;8.568;2024-01-15T10:45:19;22.60;;;8.55;;
11827;SDS011;5971;49.646;8.568;2024-01-15T10:48:20;21.38;;;8.25;;
11827;SDS011;5971;49.646;8.568;2024-01-15T10:51:22;16.60;;;7.60;;
11827;SDS011;5971;49.646;8.568;2024-01-15T10:54:24;18.42;;;8.27;;
11827;SDS011;5971;49.646;8.568;2024-01-15T10:57:25;18.20;;;7.65;;
11827;SDS011;5971;49.646;8.568;2024-01-15T11:00:27;16.83;;;6.57;;
11827;SDS011;5971;49.646;8.568;2024-01-15T11:03:29;19.52;;;7.90;;
11827;SDS011;5971;49.646;8.568;2024-01-15T11:06:40;20.27;;;8.05;;
11827;SDS011;5971;49.646;8.568;2024-01-15T11:09:42;14.55;;;6.65;;
11827;SDS011;5971;49.646;8.568;2024-01-15T11:12:43;13.63;;;5.75;;
11827;SDS011;5971;49.646;8.568;2024-01-15T11:15:55;10.68;;;4.80;;
11827;SDS011;5971;49.646;8.568;2024-01-15T11:21:58;10.45;;;5.18;;
11827;SDS011;5971;49.646;8.568;2024-01-15T11:25:03;10.95;;;5.65;;
11827;SDS011;5971;49.646;8.568;2024-01-15T11:28:15;12.60;;;5.28;;
11827;SDS011;5971;49.646;8.568;2024-01-15T11:34:50;11.15;;;4.80;;
11827;SDS011;5971;49.646;8.568;2024-01-15T11:40:54;9.32;;;4.68;;
11827;SDS011;5971;49.646;8.568;2024-01-15T11:43:55;10.07;;;4.68;;
11827;SDS011;5971;49.646;8.568;2024-01-15T11:47:00;7.97;;;3.95;;
11827;SDS011;5971;49.646;8.568;2024-01-15T11:50:04;7.30;;;3.05;;
11827;SDS011;5971;49.646;8.568;2024-01-15T11:53:32;10.93;;;4.68;;
11827;SDS011;5971;49.646;8.568;2024-01-15T11:56:31;9.65;;;4.82;;
11827;SDS011;5971;49.646;8.568;2024-01-15T11:59:32;12.23;;;4.95;;
11827;SDS011;5971;49.646;8.568;2024-01-15T12:02:34;13.27;;;5.25;;
11827;SDS011;5971;49.646;8.568;2024-01-15T12:05:36;15.40;;;5.90;;
11827;SDS011;5971;49.646;8.568;2024-01-15T12:08:38;11.45;;;4.55;;
11827;SDS011;5971;49.646;8.568;2024-01-15T12:11:40;12.25;;;4.95;;
11827;SDS011;5971;49.646;8.568;2024-01-15T12:14:45;12.20;;;5.07;;
11827;SDS011;5971;49.646;8.568;2024-01-15T12:17:47;11.05;;;4.75;;
11827;SDS011;5971;49.646;8.568;2024-01-15T12:20:48;10.63;;;4.72;;
11827;SDS011;5971;49.646;8.568;2024-01-15T12:23:51;9.77;;;4.70;;
11827;SDS011;5971;49.646;8.568;2024-01-15T12:26:53;10.90;;;4.55;;
11827;SDS011;5971;49.646;8.568;2024-01-15T12:29:55;15.90;;;6.80;;
11827;SDS011;5971;49.646;8.568;2024-01-15T12:32:56;9.32;;;4.68;;
11827;SDS011;5971;49.646;8.568;2024-01-15T12:35:57;11.15;;;5.40;;
11827;SDS011;5971;49.646;8.568;2024-01-15T12:38:59;10.23;;;5.35;;
11827;SDS011;5971;49.646;8.568;2024-01-15T12:42:01;13.95;;;6.32;;
11827;SDS011;5971;49.646;8.568;2024-01-15T12:45:03;8.50;;;4.63;;
11827;SDS011;5971;49.646;8.568;2024-01-15T12:48:06;11.35;;;4.70;;
11827;SDS011;5971;49.646;8.568;2024-01-15T12:51:08;8.30;;;4.15;;
11827;SDS011;5971;49.646;8.568;2024-01-15T12:54:09;10.23;;;4.38;;
11827;SDS011;5971;49.646;8.568;2024-01-15T12:57:11;9.88;;;4.93;;
11827;SDS011;5971;49.646;8.568;2024-01-15T13:00:12;9.40;;;4.13;;
11827;SDS011;5971;49.646;8.568;2024-01-15T13:03:15;10.73;;;4.63;;
11827;SDS011;5971;49.646;8.568;2024-01-15T13:06:17;10.13;;;4.60;;
11827;SDS011;5971;49.646;8.568;2024-01-15T13:09:18;11.25;;;5.03;;
11827;SDS011;5971;49.646;8.568;2024-01-15T13:12:20;8.95;;;3.58;;
11827;SDS011;5971;49.646;8.568;2024-01-15T13:15:21;10.65;;;4.75;;
11827;SDS011;5971;49.646;8.568;2024-01-15T13:18:23;9.23;;;4.30;;
11827;SDS011;5971;49.646;8.568;2024-01-15T13:21:24;9.40;;;4.28;;
11827;SDS011;5971;49.646;8.568;2024-01-15T13:24:26;9.32;;;4.00;;
11827;SDS011;5971;49.646;8.568;2024-01-15T13:27:27;9.68;;;4.22;;
11827;SDS011;5971;49.646;8.568;2024-01-15T13:30:30;12.02;;;4.63;;
11827;SDS011;5971;49.646;8.568;2024-01-15T13:33:32;8.45;;;3.70;;
11827;SDS011;5971;49.646;8.568;2024-01-15T13:36:34;12.52;;;5.15;;
11827;SDS011;5971;49.646;8.568;2024-01-15T13:39:36;8.73;;;4.78;;
11827;SDS011;5971;49.646;8.568;2024-01-15T13:42:38;9.00;;;4.15;;
11827;SDS011;5971;49.646;8.568;2024-01-15T13:45:42;11.38;;;4.95;;
11827;SDS011;5971;49.646;8.568;2024-01-15T13:48:44;8.57;;;4.53;;
11827;SDS011;5971;49.646;8.568;2024-01-15T13:51:45;9.88;;;4.95;;
11827;SDS011;5971;49.646;8.568;2024-01-15T13:54:47;7.93;;;4.00;;
11827;SDS011;5971;49.646;8.568;2024-01-15T13:57:51;10.00;;;4.70;;
11827;SDS011;5971;49.646;8.568;2024-01-15T14:00:52;11.63;;;4.90;;
11827;SDS011;5971;49.646;8.568;2024-01-15T14:03:54;10.02;;;4.30;;
11827;SDS011;5971;49.646;8.568;2024-01-15T14:06:55;9.75;;;4.13;;
11827;SDS011;5971;49.646;8.568;2024-01-15T14:10:00;9.13;;;4.00;;
11827;SDS011;5971;49.646;8.568;2024-01-15T14:13:01;11.05;;;4.10;;
11827;SDS011;5971;49.646;8.568;2024-01-15T14:16:03;10.38;;;5.28;;
11827;SDS011;5971;49.646;8.568;2024-01-15T14:19:04;7.82;;;3.38;;
11827;SDS011;5971;49.646;8.568;2024-01-15T14:22:07;7.13;;;3.38;;
11827;SDS011;5971;49.646;8.568;2024-01-15T14:25:09;8.30;;;3.78;;
11827;SDS011;5971;49.646;8.568;2024-01-15T14:28:10;7.82;;;3.40;;
11827;SDS011;5971;49.646;8.568;2024-01-15T14:31:12;7.60;;;3.45;;
11827;SDS011;5971;49.646;8.568;2024-01-15T14:34:13;7.60;;;3.60;;
11827;SDS011;5971;49.646;8.568;2024-01-15T14:37:15;7.28;;;3.20;;
11827;SDS011;5971;49.646;8.568;2024-01-15T14:40:16;9.23;;;3.63;;
11827;SDS011;5971;49.646;8.568;2024-01-15T14:43:18;8.27;;;2.65;;
11827;SDS011;5971;49.646;8.568;2024-01-15T14:46:21;6.15;;;2.90;;
11827;SDS011;5971;49.646;8.568;2024-01-15T14:49:22;6.18;;;3.00;;
11827;SDS011;5971;49.646;8.568;2024-01-15T14:52:24;8.43;;;3.53;;
11827;SDS011;5971;49.646;8.568;2024-01-15T14:55:25;7.40;;;3.70;;
11827;SDS011;5971;49.646;8.568;2024-01-15T14:58:26;8.70;;;3.97;;
11827;SDS011;5971;49.646;8.568;2024-01-15T15:01:30;7.03;;;3.10;;
11827;SDS011;5971;49.646;8.568;2024-01-15T15:04:32;6.32;;;3.25;;
11827;SDS011;5971;49.646;8.568;2024-01-15T15:07:34;8.35;;;3.20;;
11827;SDS011;5971;49.646;8.568;2024-01-15T15:10:37;9.48;;;3.85;;
11827;SDS011;5971;49.646;8.568;2024-01-15T15:13:41;6.18;;;3.28;;
11827;SDS011;5971;49.646;8.568;2024-01-15T15:16:46;7.30;;;3.42;;
11827;SDS011;5971;49.646;8.568;2024-01-15T15:19:47;7.90;;;3.72;;
11827;SDS011;5971;49.646;8.568;2024-01-15T15:22:50;9.80;;;4.07;;
11827;SDS011;5971;49.646;8.568;2024-01-15T15:25:52;8.43;;;3.90;;
11827;SDS011;5971;49.646;8.568;2024-01-15T15:28:53;8.45;;;3.63;;
11827;SDS011;5971;49.646;8.568;2024-01-15T15:31:55;8.30;;;4.18;;
11827;SDS011;5971;49.646;8.568;2024-01-15T15:34:56;9.65;;;4.60;;
11827;SDS011;5971;49.646;8.568;2024-01-15T15:37:58;12.55;;;5.18;;
11827;SDS011;5971;49.646;8.568;2024-01-15T15:40:59;7.80;;;3.97;;
11827;SDS011;5971;49.646;8.568;2024-01-15T15:44:01;8.60;;;3.50;;
11827;SDS011;5971;49.646;8.568;2024-01-15T15:47:02;8.90;;;4.32;;
11827;SDS011;5971;49.646;8.568;2024-01-15T15:50:03;7.93;;;3.88;;
11827;SDS011;5971;49.646;8.568;2024-01-15T15:53:05;7.72;;;3.45;;
11827;SDS011;5971;49.646;8.568;2024-01-15T15:56:07;9.43;;;4.10;;
11827;SDS011;5971;49.646;8.568;2024-01-15T15:59:08;8.30;;;3.72;;
11827;SDS011;5971;49.646;8.568;2024-01-15T16:02:10;7.70;;;3.72;;
11827;SDS011;5971;49.646;8.568;2024-01-15T16:05:11;8.00;;;2.70;;
11827;SDS011;5971;49.646;8.568;2024-01-15T16:08:13;7.75;;;3.90;;
11827;SDS011;5971;49.646;8.568;2024-01-15T16:11:14;6.20;;;2.97;;
11827;SDS011;5971;49.646;8.568;2024-01-15T16:14:16;8.38;;;3.30;;
11827;SDS011;5971;49.646;8.568;2024-01-15T16:17:18;6.68;;;3.50;;
11827;SDS011;5971;49.646;8.568;2024-01-15T16:20:40;4.88;;;1.98;;
11827;SDS011;5971;49.646;8.568;2024-01-15T16:24:03;7.45;;;3.28;;
11827;SDS011;5971;49.646;8.568;2024-01-15T16:27:23;6.50;;;2.97;;
11827;SDS011;5971;49.646;8.568;2024-01-15T16:30:24;6.32;;;3.50;;
11827;SDS011;5971;49.646;8.568;2024-01-15T16:33:37;6.75;;;2.90;;
11827;SDS011;5971;49.646;8.568;2024-01-15T16:36:39;5.40;;;2.65;;
11827;SDS011;5971;49.646;8.568;2024-01-15T16:39:40;6.97;;;3.03;;
11827;SDS011;5971;49.646;8.568;2024-01-15T16:42:41;6.70;;;2.83;;
11827;SDS011;5971;49.646;8.568;2024-01-15T16:45:43;5.70;;;2.85;;
11827;SDS011;5971;49.646;8.568;2024-01-15T16:48:44;6.25;;;3.63;;
11827;SDS011;5971;49.646;8.568;2024-01-15T16:51:48;7.60;;;3.20;;
11827;SDS011;5971;49.646;8.568;2024-01-15T16:54:50;7.60;;;3.45;;
11827;SDS011;5971;49.646;8.568;2024-01-15T16:57:51;8.48;;;3.65;;
11827;SDS011;5971;49.646;8.568;2024-01-15T17:00:53;6.05;;;3.28;;
11827;SDS011;5971;49.646;8.568;2024-01-15T17:03:54;6.45;;;2.92;;
11827;SDS011;5971;49.646;8.568;2024-01-15T17:06:55;5.68;;;2.95;;
11827;SDS011;5971;49.646;8.568;2024-01-15T17:09:57;6.20;;;2.60;;
11827;SDS011;5971;49.646;8.568;2024-01-15T17:13:00;4.55;;;2.35;;
11827;SDS011;5971;49.646;8.568;2024-01-15T17:16:03;5.03;;;2.15;;
11827;SDS011;5971;49.646;8.568;2024-01-15T17:19:05;5.47;;;2.45;;
11827;SDS011;5971;49.646;8.568;2024-01-15T17:22:08;5.93;;;2.58;;
11827;SDS011;5971;49.646;8.568;2024-01-15T17:25:11;6.93;;;3.03;;
11827;SDS011;5971;49.646;8.568;2024-01-15T17:28:13;3.55;;;2.17;;
11827;SDS011;5971;49.646;8.568;2024-01-15T17:31:15;5.90;;;2.78;;
11827;SDS011;5971;49.646;8.568;2024-01-15T17:34:16;5.18;;;2.85;;
11827;SDS011;5971;49.646;8.568;2024-01-15T17:37:17;8.40;;;2.60;;
11827;SDS011;5971;49.646;8.568;2024-01-15T17:40:18;4.30;;;2.20;;
11827;SDS011;5971;49.646;8.568;2024-01-15T17:43:20;5.72;;;2.53;;
11827;SDS011;5971;49.646;8.568;2024-01-15T17:46:21;5.55;;;2.30;;
11827;SDS011;5971;49.646;8.568;2024-01-15T17:49:23;5.50;;;2.40;;
11827;SDS011;5971;49.646;8.568;2024-01-15T17:52:24;5.72;;;2.55;;
11827;SDS011;5971;49.646;8.568;2024-01-15T17:55:26;6.82;;;2.50;;
11827;SDS011;5971;49.646;8.568;2024-01-15T17:58:27;4.70;;;1.58;;
11827;SDS011;5971;49.646;8.568;2024-01-15T18:01:29;5.53;;;2.83;;
11827;SDS011;5971;49.646;8.568;2024-01-15T18:04:32;4.20;;;2.25;;
11827;SDS011;5971;49.646;8.568;2024-01-15T18:07:33;7.82;;;3.17;;
11827;SDS011;5971;49.646;8.568;2024-01-15T18:10:34;3.88;;;2.17;;
11827;SDS011;5971;49.646;8.568;2024-01-15T18:13:36;3.72;;;2.13;;
11827;SDS011;5971;49.646;8.568;2024-01-15T18:16:38;5.03;;;2.55;;
11827;SDS011;5971;49.646;8.568;2024-01-15T18:19:39;3.78;;;1.95;;
11827;SDS011;5971;49.646;8.568;2024-01-15T18:22:43;5.00;;;2.72;;
11827;SDS011;5971;49.646;8.568;2024-01-15T18:25:46;5.55;;;2.85;;
11827;SDS011;5971;49.646;8.568;2024-01-15T18:28:49;4.75;;;2.22;;
11827;SDS011;5971;49.646;8.568;2024-01-15T18:31:51;5.53;;;2.42;;
11827;SDS011;5971;49.646;8.568;2024-01-15T18:34:52;2.97;;;1.88;;